createdAt,value
2023-04-11T00:00:57.336Z,249.89
2023-04-11T00:01:57.559Z,249.07
2023-04-11T00:02:57.538Z,247.11
2023-04-11T00:03:57.601Z,246.64
2023-04-11T00:04:57.451Z,251.81
2023-04-11T00:05:57.487Z,251.39
2023-04-11T00:06:57.449Z,247.01
2023-04-11T00:07:57.591Z,240.10
2023-04-11T00:08:57.798Z,237.43
2023-04-11T00:09:57.472Z,236.41
2023-04-11T00:10:57.540Z,239.35
2023-04-11T00:11:57.619Z,238.91
2023-04-11T00:12:57.550Z,227.85
2023-04-11T00:13:57.770Z,206.62
2023-04-11T00:14:57.536Z,197.82
2023-04-11T00:15:57.640Z,192.87
2023-04-11T00:16:57.677Z,191.74
2023-04-11T00:17:57.661Z,191.74
2023-04-11T00:18:58.132Z,197.55
2023-04-11T00:19:57.600Z,204.80
2023-04-11T00:20:57.686Z,210.72
2023-04-11T00:21:57.596Z,216.03
2023-04-11T00:22:58.596Z,220.90
2023-04-11T00:23:57.652Z,222.34
2023-04-11T00:24:57.657Z,213.70
2023-04-11T00:25:57.668Z,220.26
2023-04-11T00:26:57.773Z,229.59
2023-04-11T00:27:57.768Z,236.26
2023-04-11T00:28:57.785Z,243.15
2023-04-11T00:29:57.791Z,250.26
2023-04-11T00:30:57.837Z,256.36
2023-04-11T00:31:57.904Z,259.87
2023-04-11T00:32:57.848Z,256.48
2023-04-11T00:33:57.907Z,254.23
2023-04-11T00:34:57.964Z,254.86
2023-04-11T00:35:58.119Z,255.63
2023-04-11T00:36:58.043Z,257.04
2023-04-11T00:37:58.095Z,256.51
2023-04-11T00:38:58.132Z,255.13
2023-04-11T00:39:58.094Z,257.39
2023-04-11T00:40:58.058Z,261.55
2023-04-11T00:41:58.139Z,260.03
2023-04-11T00:42:58.147Z,259.09
2023-04-11T00:43:58.200Z,254.81
2023-04-11T00:44:58.270Z,255.73
2023-04-11T00:45:59.115Z,250.79
2023-04-11T00:46:58.314Z,242.37
2023-04-11T00:47:58.395Z,233.98
2023-04-11T00:48:58.671Z,230.38
2023-04-11T00:49:58.385Z,229.63
2023-04-11T00:50:58.458Z,229.56
2023-04-11T00:51:58.458Z,230.94
2023-04-11T00:52:58.517Z,227.99
2023-04-11T00:53:58.541Z,225.34
2023-04-11T00:54:58.662Z,224.19
2023-04-11T00:55:58.591Z,224.12
2023-04-11T00:56:58.705Z,222.27
2023-04-11T00:57:58.752Z,224.80
2023-04-11T00:58:59.567Z,225.34
2023-04-11T00:59:58.756Z,221.86
2023-04-11T01:00:58.854Z,232.69
2023-04-11T01:01:58.949Z,227.42
2023-04-11T01:02:59.835Z,222.55
2023-04-11T01:03:59.055Z,219.56
2023-04-11T01:04:58.924Z,218.74
2023-04-11T01:05:58.907Z,219.26
2023-04-11T01:06:58.971Z,220.21
2023-04-11T01:07:59.049Z,222.31
2023-04-11T01:08:59.135Z,224.24
2023-04-11T01:09:59.070Z,225.21
2023-04-11T01:10:59.050Z,225.74
2023-04-11T01:11:59.141Z,228.54
2023-04-11T01:12:59.088Z,231.41
2023-04-11T01:13:59.102Z,232.38
2023-04-11T01:15:00.166Z,232.19
2023-04-11T01:15:59.175Z,233.45
2023-04-11T01:16:59.733Z,233.51
2023-04-11T01:17:59.227Z,233.28
2023-04-11T01:19:00.206Z,233.47
2023-04-11T01:19:59.210Z,233.46
2023-04-11T01:20:59.225Z,235.24
2023-04-11T01:21:59.225Z,236.70
2023-04-11T01:22:59.377Z,237.93
2023-04-11T01:23:59.276Z,238.85
2023-04-11T01:24:59.303Z,238.64
2023-04-11T01:25:59.324Z,235.89
2023-04-11T01:26:59.456Z,234.88
2023-04-11T01:27:59.430Z,235.18
2023-04-11T01:28:59.604Z,236.35
2023-04-11T01:29:59.441Z,237.77
2023-04-11T01:30:59.424Z,239.39
2023-04-11T01:31:59.401Z,240.80
2023-04-11T01:32:59.627Z,240.57
2023-04-11T01:33:59.467Z,241.09
2023-04-11T01:34:59.547Z,238.54
2023-04-11T01:35:59.646Z,236.82
2023-04-11T01:36:59.618Z,236.35
2023-04-11T01:37:59.711Z,237.60
2023-04-11T01:38:59.769Z,239.69
2023-04-11T01:39:59.680Z,241.22
2023-04-11T01:40:59.701Z,239.27
2023-04-11T01:41:59.770Z,237.35
2023-04-11T01:42:59.736Z,235.03
2023-04-11T01:43:59.750Z,232.18
2023-04-11T01:44:59.786Z,235.01
2023-04-11T01:45:59.842Z,240.93
2023-04-11T01:46:59.865Z,239.42
2023-04-11T01:48:00.033Z,240.99
2023-04-11T01:48:59.945Z,241.60
2023-04-11T01:50:00.097Z,235.95
2023-04-11T01:50:59.918Z,239.11
2023-04-11T01:51:59.958Z,239.00
2023-04-11T01:52:59.942Z,233.27
2023-04-11T01:54:00.011Z,228.15
2023-04-11T01:55:00.615Z,223.57
2023-04-11T01:55:59.971Z,214.48
2023-04-11T01:56:59.988Z,203.34
2023-04-11T01:58:00.009Z,198.13
2023-04-11T01:59:00.034Z,199.35
2023-04-11T02:00:00.051Z,203.19
2023-04-11T02:01:00.240Z,206.48
2023-04-11T02:02:00.151Z,211.40
2023-04-11T02:03:00.317Z,213.98
2023-04-11T02:04:00.263Z,218.51
2023-04-11T02:05:00.154Z,224.23
2023-04-11T02:06:00.137Z,226.70
2023-04-11T02:07:00.164Z,227.67
2023-04-11T02:08:00.632Z,229.93
2023-04-11T02:09:00.346Z,230.86
2023-04-11T02:10:00.256Z,230.83
2023-04-11T02:11:00.340Z,229.20
2023-04-11T02:12:00.304Z,228.64
2023-04-11T02:13:00.315Z,226.67
2023-04-11T02:14:00.414Z,224.82
2023-04-11T02:15:00.375Z,221.79
2023-04-11T02:16:00.437Z,222.65
2023-04-11T02:17:00.432Z,223.65
2023-04-11T02:18:00.513Z,228.62
2023-04-11T02:19:00.459Z,231.77
2023-04-11T02:20:00.463Z,233.07
2023-04-11T02:21:00.471Z,229.36
2023-04-11T02:22:00.496Z,228.26
2023-04-11T02:23:00.520Z,232.45
2023-04-11T02:24:00.981Z,232.61
2023-04-11T02:25:00.603Z,232.77
2023-04-11T02:26:00.625Z,229.90
2023-04-11T02:27:00.637Z,230.45
2023-04-11T02:28:02.598Z,236.70
2023-04-11T02:29:00.690Z,239.41
2023-04-11T02:30:00.743Z,239.67
2023-04-11T02:31:00.826Z,238.70
2023-04-11T02:32:00.929Z,240.50
2023-04-11T02:33:00.863Z,242.71
2023-04-11T02:34:00.842Z,244.16
2023-04-11T02:35:00.805Z,246.30
2023-04-11T02:36:00.964Z,245.92
2023-04-11T02:37:00.894Z,243.63
2023-04-11T02:38:00.926Z,238.97
2023-04-11T02:39:00.993Z,233.47
2023-04-11T02:40:01.002Z,228.38
2023-04-11T02:41:01.053Z,220.37
2023-04-11T02:42:01.097Z,208.11
2023-04-11T02:43:01.174Z,197.39
2023-04-11T02:44:01.248Z,187.09
2023-04-11T02:45:01.137Z,191.98
2023-04-11T02:46:11.702Z,196.29
2023-04-11T02:47:02.182Z,195.31
2023-04-11T02:48:01.169Z,189.55
2023-04-11T02:49:01.125Z,186.95
2023-04-11T02:50:01.147Z,187.25
2023-04-11T02:51:01.109Z,189.08
2023-04-11T02:52:01.069Z,193.22
2023-04-11T02:53:01.092Z,199.16
2023-04-11T02:54:01.110Z,201.84
2023-04-11T02:55:01.063Z,203.52
2023-04-11T02:56:01.058Z,207.46
2023-04-11T02:57:01.106Z,213.20
2023-04-11T02:58:01.085Z,219.69
2023-04-11T02:59:01.095Z,225.16
2023-04-11T03:00:01.111Z,232.98
2023-04-11T03:01:01.017Z,234.27
2023-04-11T03:02:01.731Z,235.44
2023-04-11T03:03:01.082Z,231.66
2023-04-11T03:04:01.086Z,234.53
2023-04-11T03:05:01.006Z,234.08
2023-04-11T03:06:01.021Z,236.53
2023-04-11T03:07:01.600Z,236.03
2023-04-11T03:08:01.013Z,230.95
2023-04-11T03:09:01.085Z,227.71
2023-04-11T03:10:01.098Z,225.06
2023-04-11T03:11:00.959Z,223.62
2023-04-11T03:12:01.042Z,223.90
2023-04-11T03:13:00.953Z,224.25
2023-04-11T03:14:00.983Z,225.46
2023-04-11T03:15:00.916Z,225.71
2023-04-11T03:16:00.980Z,226.07
2023-04-11T03:17:00.903Z,226.75
2023-04-11T03:18:00.956Z,227.87
2023-04-11T03:19:01.663Z,230.99
2023-04-11T03:20:00.960Z,234.01
2023-04-11T03:21:00.879Z,238.63
2023-04-11T03:22:00.905Z,244.62
2023-04-11T03:23:00.878Z,250.83
2023-04-11T03:24:00.860Z,255.45
2023-04-11T03:25:00.903Z,260.39
2023-04-11T03:26:00.885Z,250.96
2023-04-11T03:27:00.840Z,245.24
2023-04-11T03:28:00.985Z,238.73
2023-04-11T03:29:00.906Z,237.24
2023-04-11T03:30:00.910Z,238.07
2023-04-11T03:31:00.898Z,237.51
2023-04-11T03:32:00.808Z,248.39
2023-04-11T03:33:00.947Z,257.87
2023-04-11T03:34:00.885Z,266.08
2023-04-11T03:35:00.935Z,267.58
2023-04-11T03:36:01.009Z,263.64
2023-04-11T03:37:01.048Z,261.27
2023-04-11T03:38:00.993Z,253.33
2023-04-11T03:39:01.031Z,246.53
2023-04-11T03:40:01.027Z,236.96
2023-04-11T03:41:01.126Z,227.06
2023-04-11T03:42:01.085Z,212.53
2023-04-11T03:43:02.985Z,217.48
2023-04-11T03:44:01.058Z,230.21
2023-04-11T03:45:01.632Z,215.92
2023-04-11T03:46:01.062Z,202.36
2023-04-11T03:47:01.302Z,192.89
2023-04-11T03:48:01.100Z,194.45
2023-04-11T03:49:01.125Z,196.05
2023-04-11T03:50:01.045Z,205.76
2023-04-11T03:51:01.110Z,214.66
2023-04-11T03:52:01.002Z,215.44
2023-04-11T03:53:00.973Z,205.59
2023-04-11T03:54:01.159Z,201.04
2023-04-11T03:55:00.973Z,202.60
2023-04-11T03:56:01.038Z,207.65
2023-04-11T03:57:00.949Z,211.02
2023-04-11T03:58:00.986Z,215.06
2023-04-11T03:59:00.943Z,219.57
2023-04-11T04:00:00.994Z,223.37
2023-04-11T04:01:00.926Z,224.86
2023-04-11T04:02:01.064Z,224.67
2023-04-11T04:03:01.112Z,225.36
2023-04-11T04:04:01.312Z,226.99
2023-04-11T04:05:00.952Z,229.07
2023-04-11T04:06:00.941Z,233.02
2023-04-11T04:07:00.884Z,234.26
2023-04-11T04:08:00.939Z,236.73
2023-04-11T04:09:01.063Z,237.25
2023-04-11T04:10:00.904Z,237.29
2023-04-11T04:11:00.848Z,236.53
2023-04-11T04:12:00.864Z,236.46
2023-04-11T04:13:00.998Z,236.79
2023-04-11T04:14:00.859Z,240.91
2023-04-11T04:15:00.853Z,248.09
2023-04-11T04:16:03.395Z,249.79
2023-04-11T04:17:00.901Z,249.82
2023-04-11T04:18:01.753Z,249.19
2023-04-11T04:19:00.839Z,247.19
2023-04-11T04:20:00.867Z,246.64
2023-04-11T04:21:00.782Z,247.63
2023-04-11T04:22:00.806Z,248.70
2023-04-11T04:23:00.783Z,247.50
2023-04-11T04:24:00.846Z,240.24
2023-04-11T04:25:00.742Z,231.13
2023-04-11T04:26:00.882Z,224.40
2023-04-11T04:27:00.813Z,219.29
2023-04-11T04:28:00.784Z,218.98
2023-04-11T04:29:00.784Z,219.38
2023-04-11T04:30:03.434Z,222.85
2023-04-11T04:31:00.721Z,223.10
2023-04-11T04:32:00.758Z,224.94
2023-04-11T04:33:01.731Z,231.21
2023-04-11T04:34:00.739Z,241.92
2023-04-11T04:35:00.695Z,256.58
2023-04-11T04:36:00.707Z,261.10
2023-04-11T04:37:00.668Z,262.26
2023-04-11T04:38:00.640Z,261.06
2023-04-11T04:39:00.668Z,260.30
2023-04-11T04:40:00.833Z,258.80
2023-04-11T04:41:00.692Z,265.45
2023-04-11T04:42:00.842Z,267.41
2023-04-11T04:43:00.676Z,265.85
2023-04-11T04:44:00.645Z,263.90
2023-04-11T04:45:00.659Z,262.47
2023-04-11T04:46:00.719Z,260.88
2023-04-11T04:47:00.811Z,258.00
2023-04-11T04:48:00.737Z,255.56
2023-04-11T04:49:02.285Z,249.82
2023-04-11T04:50:00.704Z,249.00
2023-04-11T04:51:00.752Z,249.01
2023-04-11T04:52:00.583Z,247.41
2023-04-11T04:53:00.537Z,250.16
2023-04-11T04:54:00.617Z,249.34
2023-04-11T04:55:00.707Z,245.55
2023-04-11T04:56:00.574Z,249.30
2023-04-11T04:57:00.583Z,250.04
2023-04-11T04:58:01.139Z,249.15
2023-04-11T04:59:00.521Z,248.23
2023-04-11T05:00:00.532Z,248.43
2023-04-11T05:01:00.526Z,250.48
2023-04-11T05:02:01.276Z,247.91
2023-04-11T05:03:00.736Z,244.38
2023-04-11T05:04:01.333Z,246.91
2023-04-11T05:05:00.737Z,246.65
2023-04-11T05:06:00.808Z,241.84
2023-04-11T05:07:00.682Z,235.21
2023-04-11T05:08:00.472Z,229.78
2023-04-11T05:09:00.524Z,227.59
2023-04-11T05:10:00.604Z,226.48
2023-04-11T05:11:00.729Z,228.48
2023-04-11T05:12:00.658Z,218.34
2023-04-11T05:13:00.698Z,221.93
2023-04-11T05:14:00.829Z,223.66
2023-04-11T05:15:00.860Z,222.86
2023-04-11T05:16:00.769Z,226.65
2023-04-11T05:17:00.877Z,231.42
2023-04-11T05:18:03.761Z,231.30
2023-04-11T05:19:01.237Z,233.97
2023-04-11T05:20:00.779Z,231.59
2023-04-11T05:21:00.837Z,225.35
2023-04-11T05:22:00.830Z,219.65
2023-04-11T05:23:00.830Z,217.32
2023-04-11T05:24:00.768Z,215.39
2023-04-11T05:25:02.877Z,215.75
2023-04-11T05:26:00.789Z,223.87
2023-04-11T05:27:00.756Z,234.36
2023-04-11T05:28:00.750Z,238.98
2023-04-11T05:29:00.790Z,241.18
2023-04-11T05:30:00.751Z,238.87
2023-04-11T05:31:00.809Z,234.53
2023-04-11T05:32:00.816Z,229.05
2023-04-11T05:33:01.875Z,224.46
2023-04-11T05:34:03.749Z,217.59
2023-04-11T05:35:01.724Z,213.41
2023-04-11T05:36:01.008Z,211.64
2023-04-11T05:37:00.821Z,216.40
